Time;durP1;ratioP1;P1;durP2;ratioP2;P2;SDS_P1;SDS_P2;PMS_P1;PMS_P2;Temp;Humidity;BMP_temperature;BMP_pressure;BME280_temperature;BME280_humidity;BME280_pressure;Samples;Min_cycle;Max_cycle;Signal;HPM_P1;HPM_P2
2022/08/29 00:00:55;;;;;;;6.40;3.30;;;;;;;;;;4954115;28;20126;-85
2022/08/29 00:03:21;;;;;;;9.40;3.85;;;;;;;;;;4950687;29;20453;-84
2022/08/29 00:05:47;;;;;;;9.40;3.70;;;;;;;;;;4951945;29;20051;-85
2022/08/29 00:08:13;;;;;;;7.60;3.70;;;;;;;;;;4947868;29;20405;-85
2022/08/29 00:10:40;;;;;;;5.90;3.58;;;;;;;;;;4935932;29;20425;-85
2022/08/29 00:13:07;;;;;;;6.03;3.50;;;;;;;;;;4935513;29;20111;-84
2022/08/29 00:15:33;;;;;;;7.78;4.13;;;;;;;;;;4953140;29;20086;-85
2022/08/29 00:17:59;;;;;;;6.28;3.10;;;;;;;;;;4952655;29;20051;-85
2022/08/29 00:20:26;;;;;;;6.18;3.22;;;;;;;;;;4951941;29;20043;-85
2022/08/29 00:22:53;;;;;;;6.85;3.92;;;;;;;;;;4954121;29;20086;-84
2022/08/29 00:25:19;;;;;;;8.80;3.28;;;;;;;;;;4951451;29;20079;-85
2022/08/29 00:27:45;;;;;;;7.65;3.40;;;;;;;;;;4952720;28;20043;-85
2022/08/29 00:30:12;;;;;;;7.72;3.50;;;;;;;;;;4953707;29;20453;-85
2022/08/29 00:32:38;;;;;;;6.55;2.90;;;;;;;;;;4953753;28;20050;-84
2022/08/29 00:35:11;;;;;;;7.75;2.80;;;;;;;;;;4950666;29;20496;-84
2022/08/29 00:37:38;;;;;;;6.55;2.75;;;;;;;;;;4952412;29;20564;-85
2022/08/29 00:40:05;;;;;;;6.63;2.80;;;;;;;;;;4935689;29;20047;-85
2022/08/29 00:42:31;;;;;;;8.07;3.20;;;;;;;;;;4953788;29;20062;-85
2022/08/29 00:44:57;;;;;;;6.97;3.03;;;;;;;;;;4952408;29;20125;-85
2022/08/29 00:47:26;;;;;;;6.60;3.13;;;;;;;;;;4952477;29;20424;-84
2022/08/29 00:49:54;;;;;;;8.77;3.03;;;;;;;;;;4952467;29;20039;-85
2022/08/29 00:52:40;;;;;;;6.50;2.50;;;;;;;;;;4936491;29;20065;-84
2022/08/29 00:55:11;;;;;;;3.90;2.50;;;;;;;;;;4950935;29;20097;-85
2022/08/29 00:57:39;;;;;;;6.32;3.05;;;;;;;;;;4934635;28;20047;-85
2022/08/29 01:00:06;;;;;;;6.18;2.47;;;;;;;;;;4917152;29;20083;-85
2022/08/29 01:02:32;;;;;;;4.60;2.53;;;;;;;;;;4933616;29;20094;-85
2022/08/29 01:04:59;;;;;;;5.72;2.60;;;;;;;;;;4952502;28;20083;-84
2022/08/29 01:07:25;;;;;;;5.53;2.78;;;;;;;;;;4952753;28;20059;-85
2022/08/29 01:09:51;;;;;;;5.65;2.55;;;;;;;;;;4942033;28;20067;-85
2022/08/29 01:12:19;;;;;;;4.22;2.60;;;;;;;;;;4952835;29;20109;-85
2022/08/29 01:14:48;;;;;;;8.32;2.40;;;;;;;;;;4952172;29;20451;-85
2022/08/29 01:17:19;;;;;;;8.63;2.88;;;;;;;;;;4950885;29;20083;-85
2022/08/29 01:19:55;;;;;;;5.00;2.47;;;;;;;;;;4951257;29;20155;-84
2022/08/29 01:22:39;;;;;;;4.80;2.45;;;;;;;;;;4949964;28;20500;-85
2022/08/29 01:25:07;;;;;;;5.97;2.30;;;;;;;;;;4951618;29;20059;-85
2022/08/29 01:27:36;;;;;;;5.00;2.30;;;;;;;;;;4933774;29;20102;-85
2022/08/29 01:30:02;;;;;;;4.88;2.55;;;;;;;;;;4948443;29;20067;-85
2022/08/29 01:32:28;;;;;;;4.85;2.53;;;;;;;;;;4950737;28;20042;-85
2022/08/29 01:34:54;;;;;;;4.93;2.50;;;;;;;;;;4946732;28;20047;-85
2022/08/29 01:37:20;;;;;;;5.57;2.60;;;;;;;;;;4952325;29;20055;-85
2022/08/29 01:39:46;;;;;;;5.70;2.50;;;;;;;;;;4951980;29;20047;-84
2022/08/29 01:42:17;;;;;;;6.50;2.40;;;;;;;;;;4952611;29;20240;-85
2022/08/29 01:44:53;;;;;;;4.70;2.60;;;;;;;;;;4949887;29;20066;-85
2022/08/29 01:47:21;;;;;;;5.00;2.60;;;;;;;;;;4933412;29;20160;-85
2022/08/29 01:49:47;;;;;;;5.35;2.90;;;;;;;;;;4948700;29;20051;-85
2022/08/29 01:52:13;;;;;;;5.55;2.50;;;;;;;;;;4951675;29;20511;-85
2022/08/29 01:54:40;;;;;;;4.88;2.20;;;;;;;;;;4940713;29;20052;-85
2022/08/29 01:57:06;;;;;;;7.65;2.50;;;;;;;;;;4933296;29;20055;-85
2022/08/29 01:59:32;;;;;;;7.05;2.80;;;;;;;;;;4933763;29;20044;-85
2022/08/29 02:02:07;;;;;;;4.10;2.40;;;;;;;;;;4940107;29;20056;-85
2022/08/29 02:04:33;;;;;;;6.25;2.47;;;;;;;;;;4952863;29;20059;-85
2022/08/29 02:06:59;;;;;;;5.88;2.50;;;;;;;;;;4951184;29;20051;-85
2022/08/29 02:09:26;;;;;;;4.88;2.55;;;;;;;;;;4950145;29;20055;-85
2022/08/29 02:11:53;;;;;;;4.65;2.63;;;;;;;;;;4934846;29;20086;-85
2022/08/29 02:14:19;;;;;;;4.35;2.33;;;;;;;;;;4933063;29;20047;-84
2022/08/29 02:16:45;;;;;;;5.65;2.65;;;;;;;;;;4949316;29;20079;-85
2022/08/29 02:19:11;;;;;;;10.25;2.75;;;;;;;;;;4934601;28;20047;-85
2022/08/29 02:21:38;;;;;;;6.28;2.45;;;;;;;;;;4944325;28;20043;-84
2022/08/29 02:24:04;;;;;;;6.55;2.85;;;;;;;;;;4956028;28;20505;-85
2022/08/29 02:26:30;;;;;;;6.30;2.90;;;;;;;;;;4956200;29;20051;-85
2022/08/29 02:28:56;;;;;;;6.65;3.33;;;;;;;;;;4955511;28;20126;-85
2022/08/29 02:31:23;;;;;;;4.75;2.65;;;;;;;;;;4948188;29;20114;-85
2022/08/29 02:33:50;;;;;;;10.32;3.47;;;;;;;;;;4956218;29;20047;-85
2022/08/29 02:36:17;;;;;;;4.90;2.72;;;;;;;;;;4953487;29;20130;-85
2022/08/29 02:38:43;;;;;;;4.90;2.90;;;;;;;;;;4954786;29;20122;-85
2022/08/29 02:41:10;;;;;;;6.03;2.80;;;;;;;;;;4954394;29;20094;-85
2022/08/29 02:43:36;;;;;;;4.25;2.95;;;;;;;;;;4954619;29;20138;-85
2022/08/29 02:46:03;;;;;;;6.82;3.00;;;;;;;;;;4953466;29;20134;-84
2022/08/29 02:48:29;;;;;;;7.05;3.00;;;;;;;;;;4955566;28;20469;-85
2022/08/29 02:50:57;;;;;;;5.75;3.50;;;;;;;;;;4937608;29;20461;-85
2022/08/29 02:53:24;;;;;;;5.25;2.60;;;;;;;;;;4955758;28;20050;-84
2022/08/29 02:55:53;;;;;;;5.70;2.85;;;;;;;;;;4955635;29;20043;-85
2022/08/29 02:58:20;;;;;;;6.18;3.00;;;;;;;;;;4954072;29;20051;-85
2022/08/29 03:00:46;;;;;;;4.85;2.80;;;;;;;;;;4954847;29;20052;-85
2022/08/29 03:03:12;;;;;;;6.00;2.90;;;;;;;;;;4955334;29;20050;-85
2022/08/29 03:05:38;;;;;;;6.53;3.00;;;;;;;;;;4929306;29;20048;-85
2022/08/29 03:08:06;;;;;;;5.55;2.50;;;;;;;;;;4936058;29;20180;-85
2022/08/29 03:10:32;;;;;;;5.43;2.70;;;;;;;;;;4947033;29;20147;-85
2022/08/29 03:12:59;;;;;;;5.88;3.00;;;;;;;;;;4941485;29;20062;-85
2022/08/29 03:15:25;;;;;;;4.18;2.95;;;;;;;;;;4936625;29;20047;-85
2022/08/29 03:17:51;;;;;;;4.68;2.60;;;;;;;;;;4934779;29;20135;-85
2022/08/29 03:20:18;;;;;;;5.50;3.10;;;;;;;;;;4934560;29;20123;-85
2022/08/29 03:22:44;;;;;;;3.70;2.60;;;;;;;;;;4919233;29;20056;-85
2022/08/29 03:25:11;;;;;;;6.28;2.72;;;;;;;;;;4944847;29;20043;-85
2022/08/29 03:27:37;;;;;;;5.55;2.80;;;;;;;;;;4954990;28;20047;-85
2022/08/29 03:30:04;;;;;;;6.32;2.83;;;;;;;;;;4951901;29;20039;-85
2022/08/29 03:32:30;;;;;;;11.00;3.15;;;;;;;;;;4947753;29;20130;-85
2022/08/29 03:34:56;;;;;;;4.70;3.05;;;;;;;;;;4933536;29;20086;-85
2022/08/29 03:37:22;;;;;;;8.85;3.00;;;;;;;;;;4935735;29;20083;-85
2022/08/29 03:39:48;;;;;;;5.88;3.30;;;;;;;;;;4943949;28;20051;-85
2022/08/29 03:42:14;;;;;;;8.75;3.20;;;;;;;;;;4954148;29;20432;-85
2022/08/29 03:44:41;;;;;;;7.15;3.45;;;;;;;;;;4952919;29;20071;-85
2022/08/29 03:47:08;;;;;;;4.90;3.17;;;;;;;;;;4936541;29;20058;-85
2022/08/29 03:49:35;;;;;;;6.32;2.97;;;;;;;;;;4935548;29;20040;-85
2022/08/29 03:52:01;;;;;;;6.15;2.90;;;;;;;;;;4935232;29;20056;-85
2022/08/29 03:54:27;;;;;;;4.85;2.80;;;;;;;;;;4943790;28;20114;-85
2022/08/29 03:56:54;;;;;;;5.82;2.65;;;;;;;;;;4952864;29;20126;-85
2022/08/29 03:59:20;;;;;;;6.45;3.03;;;;;;;;;;4952599;29;20382;-84
2022/08/29 04:01:47;;;;;;;7.38;3.20;;;;;;;;;;4954560;28;20560;-85
2022/08/29 04:05:05;;;;;;;7.38;3.13;;;;;;;;;;4953573;28;20045;-85
2022/08/29 04:07:00;;;;;;;4.95;3.30;;;;;;;;;;4953833;29;20049;-85
2022/08/29 04:09:26;;;;;;;5.85;3.00;;;;;;;;;;4953387;28;20070;-85
2022/08/29 04:11:52;;;;;;;7.43;3.65;;;;;;;;;;4950844;28;20481;-85
2022/08/29 04:14:19;;;;;;;6.85;2.97;;;;;;;;;;4954206;29;20077;-85
2022/08/29 04:16:48;;;;;;;6.30;2.90;;;;;;;;;;4952694;28;20113;-85
2022/08/29 04:19:14;;;;;;;5.05;2.75;;;;;;;;;;4952238;28;20043;-85
2022/08/29 04:21:40;;;;;;;6.80;2.97;;;;;;;;;;4952804;29;20054;-85
2022/08/29 04:24:06;;;;;;;7.93;3.40;;;;;;;;;;4935850;29;20043;-85
2022/08/29 04:26:33;;;;;;;5.78;2.70;;;;;;;;;;4953726;29;20087;-85
2022/08/29 04:28:59;;;;;;;11.05;3.40;;;;;;;;;;4952414;29;20109;-85
2022/08/29 04:31:26;;;;;;;6.82;2.80;;;;;;;;;;4954003;29;20409;-85
2022/08/29 04:33:52;;;;;;;7.05;3.08;;;;;;;;;;4940882;29;20102;-85
2022/08/29 04:36:18;;;;;;;13.77;3.40;;;;;;;;;;4950596;28;20051;-85
2022/08/29 04:38:44;;;;;;;7.35;3.28;;;;;;;;;;4944551;29;20170;-85
2022/08/29 04:41:14;;;;;;;10.43;3.60;;;;;;;;;;4932733;29;20122;-85
2022/08/29 04:43:41;;;;;;;5.82;3.38;;;;;;;;;;4933449;29;20048;-85
2022/08/29 04:46:08;;;;;;;7.93;2.97;;;;;;;;;;4932895;29;20050;-85
2022/08/29 04:48:34;;;;;;;10.07;3.47;;;;;;;;;;4946992;28;20047;-85
2022/08/29 04:51:00;;;;;;;8.32;3.90;;;;;;;;;;4952028;29;20058;-85
2022/08/29 04:53:27;;;;;;;5.55;3.50;;;;;;;;;;4952452;29;20123;-85
2022/08/29 04:56:00;;;;;;;9.60;3.15;;;;;;;;;;4952940;28;20086;-85
2022/08/29 04:58:27;;;;;;;8.32;3.00;;;;;;;;;;4953659;28;20513;-85
2022/08/29 05:00:54;;;;;;;7.90;3.10;;;;;;;;;;4931805;29;20122;-85
2022/08/29 05:03:20;;;;;;;7.90;3.28;;;;;;;;;;4950975;28;20039;-85
2022/08/29 05:05:54;;;;;;;9.85;3.72;;;;;;;;;;4952426;28;20126;-85
2022/08/29 05:08:21;;;;;;;8.45;3.45;;;;;;;;;;4951964;29;20429;-85
2022/08/29 05:10:48;;;;;;;8.32;3.53;;;;;;;;;;4942035;28;20059;-85
2022/08/29 05:13:14;;;;;;;7.30;3.75;;;;;;;;;;4933868;29;20461;-84
2022/08/29 05:15:40;;;;;;;8.45;3.50;;;;;;;;;;4934307;29;20043;-85
2022/08/29 05:18:06;;;;;;;7.35;3.80;;;;;;;;;;4943156;29;20052;-84
2022/08/29 05:20:32;;;;;;;6.25;3.28;;;;;;;;;;4943506;28;20354;-84
2022/08/29 05:22:58;;;;;;;11.35;3.60;;;;;;;;;;4935280;29;20508;-84
2022/08/29 05:25:25;;;;;;;4.53;3.05;;;;;;;;;;4952239;28;20047;-84
2022/08/29 05:27:51;;;;;;;9.75;3.55;;;;;;;;;;4953135;29;20505;-84
2022/08/29 05:30:17;;;;;;;6.95;3.83;;;;;;;;;;4952614;28;20047;-84
2022/08/29 05:32:43;;;;;;;5.97;3.40;;;;;;;;;;4952651;29;20078;-85
2022/08/29 05:35:09;;;;;;;7.30;3.08;;;;;;;;;;4951990;29;20054;-84
2022/08/29 05:37:35;;;;;;;7.05;3.55;;;;;;;;;;4952893;29;20051;-84
2022/08/29 05:40:01;;;;;;;7.63;3.15;;;;;;;;;;4945253;29;20420;-85
2022/08/29 05:42:28;;;;;;;6.05;3.28;;;;;;;;;;4934004;29;20044;-84
2022/08/29 05:44:54;;;;;;;6.95;3.03;;;;;;;;;;4932516;29;20111;-84
2022/08/29 05:47:20;;;;;;;8.55;3.47;;;;;;;;;;4947314;29;20055;-85
2022/08/29 05:49:47;;;;;;;6.32;2.92;;;;;;;;;;4951832;29;20452;-87
2022/08/29 05:52:14;;;;;;;8.63;3.25;;;;;;;;;;4951310;28;20054;-88
2022/08/29 05:54:41;;;;;;;6.38;3.42;;;;;;;;;;4952433;29;20043;-86
2022/08/29 05:57:08;;;;;;;6.95;2.95;;;;;;;;;;4951047;28;20127;-86
2022/08/29 05:59:35;;;;;;;8.10;3.30;;;;;;;;;;4939988;28;20580;-85
2022/08/29 06:02:01;;;;;;;7.32;3.28;;;;;;;;;;4953770;29;20039;-85
2022/08/29 06:04:27;;;;;;;9.88;2.83;;;;;;;;;;4953651;29;20122;-85
2022/08/29 06:06:53;;;;;;;5.93;2.60;;;;;;;;;;4955256;29;20047;-86
2022/08/29 06:09:19;;;;;;;7.03;3.00;;;;;;;;;;4956027;29;20039;-86
2022/08/29 06:11:46;;;;;;;7.05;3.50;;;;;;;;;;4955052;29;20142;-85
2022/08/29 06:14:13;;;;;;;8.45;3.00;;;;;;;;;;4949937;29;20039;-85
2022/08/29 06:16:39;;;;;;;5.43;3.10;;;;;;;;;;4937433;29;20051;-86
2022/08/29 06:19:05;;;;;;;4.95;2.90;;;;;;;;;;4953241;28;20046;-85
2022/08/29 06:21:31;;;;;;;6.78;2.90;;;;;;;;;;4956019;29;20058;-86
2022/08/29 06:23:57;;;;;;;8.48;3.28;;;;;;;;;;4954122;29;20055;-91
2022/08/29 06:26:23;;;;;;;6.18;3.10;;;;;;;;;;4956187;28;20035;-86
2022/08/29 06:28:49;;;;;;;6.22;3.13;;;;;;;;;;4956480;29;20071;-85
2022/08/29 06:31:15;;;;;;;7.95;2.97;;;;;;;;;;4954638;29;20134;-86
2022/08/29 06:33:41;;;;;;;7.07;3.50;;;;;;;;;;4954178;29;20129;-86
2022/08/29 06:36:09;;;;;;;6.72;3.50;;;;;;;;;;4953969;28;20051;-86
2022/08/29 06:38:35;;;;;;;7.57;3.50;;;;;;;;;;4938307;29;20514;-85
2022/08/29 06:41:02;;;;;;;10.73;4.05;;;;;;;;;;4935492;29;20082;-86
2022/08/29 06:43:28;;;;;;;6.53;3.20;;;;;;;;;;4937210;29;20047;-85
2022/08/29 06:45:54;;;;;;;7.05;3.40;;;;;;;;;;4936692;29;20070;-86
2022/08/29 06:48:20;;;;;;;5.55;3.13;;;;;;;;;;4935328;29;20051;-86
2022/08/29 06:50:46;;;;;;;8.85;3.33;;;;;;;;;;4936500;29;20051;-86
2022/08/29 06:53:13;;;;;;;10.27;3.60;;;;;;;;;;4936307;29;20048;-86
2022/08/29 06:55:39;;;;;;;8.85;3.50;;;;;;;;;;4937150;29;20098;-86
2022/08/29 06:58:05;;;;;;;7.90;3.30;;;;;;;;;;4919507;29;20051;-85
2022/08/29 07:00:32;;;;;;;8.85;3.58;;;;;;;;;;4951621;28;20054;-86
2022/08/29 07:02:58;;;;;;;8.13;3.45;;;;;;;;;;4952680;29;20051;-85
2022/08/29 07:05:24;;;;;;;10.15;3.70;;;;;;;;;;4953669;28;20126;-86
2022/08/29 07:07:50;;;;;;;11.95;3.60;;;;;;;;;;4951924;29;20130;-86
2022/08/29 07:10:17;;;;;;;7.38;3.45;;;;;;;;;;4920750;29;20104;-85
2022/08/29 07:12:43;;;;;;;10.82;4.38;;;;;;;;;;4950246;29;20058;-86
2022/08/29 07:15:09;;;;;;;9.60;3.72;;;;;;;;;;4941286;29;20130;-86
2022/08/29 07:17:35;;;;;;;7.05;3.20;;;;;;;;;;4949696;29;20058;-84
2022/08/29 07:20:01;;;;;;;8.70;3.22;;;;;;;;;;4953751;28;20042;-85
2022/08/29 07:22:27;;;;;;;8.52;3.28;;;;;;;;;;4941557;28;20059;-86
2022/08/29 07:24:57;;;;;;;11.57;3.72;;;;;;;;;;4937564;29;20043;-85
2022/08/29 07:27:23;;;;;;;8.23;2.97;;;;;;;;;;4947221;29;20047;-86
2022/08/29 07:29:49;;;;;;;5.85;2.90;;;;;;;;;;4936781;29;20055;-86
2022/08/29 07:32:15;;;;;;;9.63;3.45;;;;;;;;;;4953675;29;20047;-86
2022/08/29 07:34:41;;;;;;;9.27;3.40;;;;;;;;;;4939998;29;20046;-86
2022/08/29 07:37:09;;;;;;;6.50;2.85;;;;;;;;;;4936404;29;20055;-85
2022/08/29 07:39:35;;;;;;;8.70;3.22;;;;;;;;;;4950948;29;20051;-86
2022/08/29 07:42:01;;;;;;;7.95;3.03;;;;;;;;;;4937444;29;20059;-86
2022/08/29 07:44:28;;;;;;;9.73;2.95;;;;;;;;;;4951745;29;20506;-86
2022/08/29 07:46:57;;;;;;;15.63;3.75;;;;;;;;;;4942374;29;20078;-85
2022/08/29 07:49:24;;;;;;;9.57;3.60;;;;;;;;;;4953347;29;20114;-90
2022/08/29 07:51:51;;;;;;;8.55;3.35;;;;;;;;;;4954265;29;20043;-86
2022/08/29 07:54:17;;;;;;;10.18;3.75;;;;;;;;;;4938234;29;20058;-86
2022/08/29 07:56:44;;;;;;;7.85;3.35;;;;;;;;;;4940602;29;20090;-86
2022/08/29 07:59:11;;;;;;;10.65;3.65;;;;;;;;;;4933898;29;20044;-86
2022/08/29 08:01:38;;;;;;;10.43;3.60;;;;;;;;;;4919116;29;20048;-86
2022/08/29 08:04:05;;;;;;;10.98;3.95;;;;;;;;;;4933527;29;20498;-86
2022/08/29 08:06:31;;;;;;;10.40;4.00;;;;;;;;;;4949235;28;20572;-86
2022/08/29 08:08:57;;;;;;;10.20;3.65;;;;;;;;;;4950629;29;20061;-85
2022/08/29 08:11:24;;;;;;;8.75;3.85;;;;;;;;;;4950782;28;20143;-85
2022/08/29 08:13:51;;;;;;;10.20;3.17;;;;;;;;;;4940887;29;20051;-85
2022/08/29 08:16:19;;;;;;;8.43;3.58;;;;;;;;;;4935715;29;20043;-85
2022/08/29 08:18:45;;;;;;;8.70;3.63;;;;;;;;;;4934854;29;20079;-88
2022/08/29 08:21:11;;;;;;;11.77;3.88;;;;;;;;;;4948076;29;20039;-84
2022/08/29 08:23:38;;;;;;;12.65;4.03;;;;;;;;;;4952887;28;20489;-88
2022/08/29 08:26:05;;;;;;;13.23;4.53;;;;;;;;;;4953842;29;20083;-84
2022/08/29 08:28:31;;;;;;;9.35;4.28;;;;;;;;;;4954136;29;20117;-86
2022/08/29 08:30:58;;;;;;;11.25;3.80;;;;;;;;;;4952427;29;20505;-86
2022/08/29 08:33:25;;;;;;;9.63;4.20;;;;;;;;;;4952270;29;20043;-85
2022/08/29 08:35:51;;;;;;;11.90;3.88;;;;;;;;;;4953037;29;20086;-85
2022/08/29 08:38:17;;;;;;;10.48;4.15;;;;;;;;;;4943774;29;20043;-85
2022/08/29 08:40:46;;;;;;;6.93;3.30;;;;;;;;;;4952572;28;20429;-85
2022/08/29 08:43:14;;;;;;;12.70;4.13;;;;;;;;;;4951126;29;20105;-85
2022/08/29 08:45:41;;;;;;;9.52;3.53;;;;;;;;;;4942999;28;20047;-85
2022/08/29 08:48:16;;;;;;;10.52;4.00;;;;;;;;;;4933695;29;20536;-86
2022/08/29 08:50:45;;;;;;;8.10;4.22;;;;;;;;;;4943332;29;20430;-86
2022/08/29 08:53:18;;;;;;;10.18;4.65;;;;;;;;;;4952498;29;20044;-85
2022/08/29 08:55:45;;;;;;;11.73;5.18;;;;;;;;;;4953477;28;20055;-87
2022/08/29 08:58:14;;;;;;;9.57;4.85;;;;;;;;;;4936361;29;20417;-86
2022/08/29 09:00:43;;;;;;;13.57;5.63;;;;;;;;;;4953166;29;20497;-86
2022/08/29 09:03:23;;;;;;;11.52;4.43;;;;;;;;;;4949615;29;20493;-87
2022/08/29 09:06:00;;;;;;;11.60;4.32;;;;;;;;;;4944941;28;20043;-88
2022/08/29 09:08:36;;;;;;;10.43;4.45;;;;;;;;;;4952988;29;20043;-88
2022/08/29 09:11:12;;;;;;;15.68;5.40;;;;;;;;;;4940006;28;20059;-89
2022/08/29 09:13:57;;;;;;;13.88;4.65;;;;;;;;;;4945471;29;20051;-89
2022/08/29 09:16:39;;;;;;;12.65;5.40;;;;;;;;;;4937891;29;20079;-89
2022/08/29 09:19:08;;;;;;;9.50;4.57;;;;;;;;;;4933906;29;20048;-87
2022/08/29 09:21:37;;;;;;;10.68;4.68;;;;;;;;;;4917980;29;20048;-85
2022/08/29 09:24:05;;;;;;;11.93;4.82;;;;;;;;;;4933972;29;20063;-87
2022/08/29 09:26:33;;;;;;;11.27;4.82;;;;;;;;;;4949271;29;20043;-86
2022/08/29 09:28:59;;;;;;;8.07;4.50;;;;;;;;;;4935085;29;20078;-87
2022/08/29 09:31:31;;;;;;;12.75;5.22;;;;;;;;;;4948771;29;20126;-88
2022/08/29 09:33:57;;;;;;;15.80;5.30;;;;;;;;;;4937471;28;20051;-87
2022/08/29 09:36:42;;;;;;;12.43;5.13;;;;;;;;;;4950306;29;20548;-88
2022/08/29 09:39:11;;;;;;;12.40;4.78;;;;;;;;;;4950884;28;20052;-87
2022/08/29 09:41:37;;;;;;;13.32;5.68;;;;;;;;;;4936119;29;20401;-84
2022/08/29 09:44:04;;;;;;;14.88;5.43;;;;;;;;;;4951696;29;20508;-86
2022/08/29 09:46:30;;;;;;;11.52;5.30;;;;;;;;;;4951554;28;20050;-88
2022/08/29 09:48:58;;;;;;;13.82;6.20;;;;;;;;;;4940179;29;20434;-93
2022/08/29 09:51:27;;;;;;;12.15;5.00;;;;;;;;;;4951533;29;20043;-85
2022/08/29 09:54:09;;;;;;;13.07;4.90;;;;;;;;;;4954788;28;20047;-87
2022/08/29 09:56:36;;;;;;;13.65;5.43;;;;;;;;;;4948810;28;20198;-84
2022/08/29 09:59:21;;;;;;;15.75;5.40;;;;;;;;;;4936937;29;20389;-84
2022/08/29 10:01:48;;;;;;;10.88;5.22;;;;;;;;;;4936135;28;20044;-83
2022/08/29 10:04:34;;;;;;;14.88;5.65;;;;;;;;;;4933225;29;20094;-84
2022/08/29 10:07:08;;;;;;;12.32;5.53;;;;;;;;;;4950285;29;20055;-85
2022/08/29 10:09:34;;;;;;;8.77;4.82;;;;;;;;;;4951322;29;20104;-85
2022/08/29 10:12:22;;;;;;;11.93;5.50;;;;;;;;;;4952434;29;20048;-85
2022/08/29 10:14:52;;;;;;;20.58;5.97;;;;;;;;;;4950186;29;20051;-85
2022/08/29 10:20:40;;;;;;;12.05;5.38;;;;;;;;;;4935847;29;20044;-85
2022/08/29 10:23:08;;;;;;;16.52;5.10;;;;;;;;;;4951291;29;20288;-84
2022/08/29 10:25:34;;;;;;;8.13;4.50;;;;;;;;;;4950673;28;20043;-85
2022/08/29 10:28:02;;;;;;;13.63;5.43;;;;;;;;;;4942869;29;20461;-85
2022/08/29 10:30:39;;;;;;;15.30;4.90;;;;;;;;;;4938511;29;20044;-85
2022/08/29 10:33:24;;;;;;;13.25;4.97;;;;;;;;;;4938919;29;20083;-84
2022/08/29 10:35:54;;;;;;;9.25;4.63;;;;;;;;;;4936593;28;20086;-84
2022/08/29 10:38:32;;;;;;;8.57;4.35;;;;;;;;;;4949823;29;20047;-89
2022/08/29 10:41:04;;;;;;;10.60;4.90;;;;;;;;;;4934513;29;20082;-85
2022/08/29 10:43:38;;;;;;;11.90;5.35;;;;;;;;;;4953318;28;20039;-85
2022/08/29 10:46:21;;;;;;;12.27;5.57;;;;;;;;;;4954524;28;20110;-87
2022/08/29 10:48:52;;;;;;;15.75;5.28;;;;;;;;;;4941010;29;20047;-85
2022/08/29 10:51:27;;;;;;;11.77;4.47;;;;;;;;;;4940895;29;20158;-84
2022/08/29 10:53:57;;;;;;;12.18;4.97;;;;;;;;;;4943163;29;20051;-85
2022/08/29 10:56:39;;;;;;;10.05;4.30;;;;;;;;;;4940633;28;20058;-85
2022/08/29 10:59:08;;;;;;;11.77;5.22;;;;;;;;;;4939877;28;20054;-89
2022/08/29 11:01:53;;;;;;;15.05;5.93;;;;;;;;;;4944388;28;20134;-85
2022/08/29 11:04:22;;;;;;;10.02;5.15;;;;;;;;;;4952052;29;20054;-84
2022/08/29 11:07:03;;;;;;;12.25;5.25;;;;;;;;;;4949367;29;20050;-84
2022/08/29 11:09:33;;;;;;;10.52;4.68;;;;;;;;;;4944497;29;20047;-84
2022/08/29 11:12:17;;;;;;;7.68;4.38;;;;;;;;;;4952944;29;20134;-84
2022/08/29 11:14:50;;;;;;;8.80;4.10;;;;;;;;;;4947616;28;20051;-84
2022/08/29 11:17:17;;;;;;;13.90;4.80;;;;;;;;;;4942669;29;20057;-84
2022/08/29 11:20:00;;;;;;;12.38;5.35;;;;;;;;;;4952595;29;20568;-84
2022/08/29 11:22:29;;;;;;;7.68;4.30;;;;;;;;;;4947039;29;20055;-84
2022/08/29 11:25:08;;;;;;;11.18;5.28;;;;;;;;;;4938843;29;20048;-84
2022/08/29 11:27:34;;;;;;;11.57;5.20;;;;;;;;;;4944690;29;20048;-84
2022/08/29 11:30:05;;;;;;;12.95;5.28;;;;;;;;;;4952953;29;20051;-84
2022/08/29 11:32:31;;;;;;;10.90;4.93;;;;;;;;;;4943119;28;20062;-84
2022/08/29 11:35:19;;;;;;;11.88;4.70;;;;;;;;;;4941057;28;20176;-84
2022/08/29 11:37:54;;;;;;;11.32;5.22;;;;;;;;;;4951398;28;20560;-84
2022/08/29 11:40:38;;;;;;;10.30;5.13;;;;;;;;;;4941126;29;20051;-84
2022/08/29 11:43:07;;;;;;;15.35;5.05;;;;;;;;;;4954462;29;20051;-84
2022/08/29 11:45:35;;;;;;;11.75;4.75;;;;;;;;;;4940977;29;20058;-84
2022/08/29 11:48:16;;;;;;;12.82;4.97;;;;;;;;;;4936156;29;20047;-84
2022/08/29 11:50:42;;;;;;;14.40;5.20;;;;;;;;;;4937706;29;20042;-84
2022/08/29 11:53:21;;;;;;;14.43;4.10;;;;;;;;;;4952686;29;20397;-84
2022/08/29 11:56:06;;;;;;;9.32;4.20;;;;;;;;;;4933337;29;20059;-84
2022/08/29 11:58:32;;;;;;;12.27;4.45;;;;;;;;;;4940638;29;20048;-84
2022/08/29 12:00:59;;;;;;;8.52;3.85;;;;;;;;;;4949307;28;20099;-84
2022/08/29 12:03:34;;;;;;;15.07;4.75;;;;;;;;;;4950057;29;20058;-84
2022/08/29 12:06:20;;;;;;;8.05;4.65;;;;;;;;;;4949298;29;20053;-84
2022/08/29 12:08:46;;;;;;;;;;;;;;;;;;4914951;29;20043;-84
2022/08/29 12:11:12;;;;;;;8.55;4.20;;;;;;;;;;4934853;29;19945;-84
2022/08/29 12:13:47;;;;;;;11.57;4.95;;;;;;;;;;4941544;29;20051;-84
2022/08/29 12:16:18;;;;;;;7.63;4.63;;;;;;;;;;4934888;29;20048;-84
2022/08/29 12:18:46;;;;;;;9.90;4.50;;;;;;;;;;4948385;29;20182;-84
2022/08/29 12:21:51;;;;;;;10.40;4.43;;;;;;;;;;4949575;29;20043;-84
2022/08/29 12:24:32;;;;;;;12.57;5.47;;;;;;;;;;4877209;29;20458;-84
2022/08/29 12:26:58;;;;;;;9.80;4.43;;;;;;;;;;4862143;29;20045;-85
2022/08/29 12:29:32;;;;;;;11.10;4.60;;;;;;;;;;4893737;29;20060;-84
2022/08/29 12:32:06;;;;;;;13.15;4.00;;;;;;;;;;4872372;29;20542;-84
2022/08/29 12:34:44;;;;;;;14.63;5.33;;;;;;;;;;4878336;29;20048;-85
2022/08/29 12:37:13;;;;;;;14.23;4.63;;;;;;;;;;4889066;29;20119;-93
2022/08/29 12:39:42;;;;;;;8.93;3.75;;;;;;;;;;4881615;29;20045;-85
2022/08/29 12:42:29;;;;;;;10.65;3.60;;;;;;;;;;4881839;29;20467;-85
2022/08/29 12:45:17;;;;;;;14.65;5.00;;;;;;;;;;4883305;29;20040;-85
2022/08/29 12:47:48;;;;;;;8.77;4.07;;;;;;;;;;4889203;29;20060;-85
2022/08/29 12:50:21;;;;;;;9.18;4.25;;;;;;;;;;4884343;29;20135;-85
2022/08/29 12:53:00;;;;;;;12.02;4.13;;;;;;;;;;4892206;29;20053;-85
2022/08/29 12:55:28;;;;;;;10.02;4.40;;;;;;;;;;4921472;29;20063;-85
2022/08/29 12:57:55;;;;;;;12.15;4.15;;;;;;;;;;4941768;29;20163;-85
2022/08/29 13:00:25;;;;;;;12.27;4.05;;;;;;;;;;4951569;28;20055;-85
2022/08/29 13:03:00;;;;;;;14.63;4.40;;;;;;;;;;4945879;28;20382;-85
2022/08/29 13:05:27;;;;;;;8.37;3.90;;;;;;;;;;4941693;28;20061;-85
2022/08/29 13:07:55;;;;;;;8.23;4.13;;;;;;;;;;4941026;29;20118;-85
2022/08/29 13:10:21;;;;;;;6.80;3.92;;;;;;;;;;4942901;28;20457;-85
2022/08/29 13:12:47;;;;;;;9.00;4.18;;;;;;;;;;4934111;29;20063;-85
2022/08/29 13:15:18;;;;;;;8.15;3.88;;;;;;;;;;4933198;29;20104;-85
2022/08/29 13:17:45;;;;;;;9.70;3.42;;;;;;;;;;4939710;29;20115;-85
2022/08/29 13:20:30;;;;;;;17.23;4.35;;;;;;;;;;4944976;29;20047;-85
2022/08/29 13:23:05;;;;;;;8.82;4.35;;;;;;;;;;4951519;28;20062;-85
2022/08/29 13:25:32;;;;;;;10.93;4.07;;;;;;;;;;4935026;29;20556;-85
2022/08/29 13:27:58;;;;;;;8.35;4.18;;;;;;;;;;4949747;28;20114;-84
2022/08/29 13:30:24;;;;;;;11.80;4.35;;;;;;;;;;4955392;28;20398;-85
2022/08/29 13:32:52;;;;;;;10.07;4.15;;;;;;;;;;4943429;29;20051;-86
2022/08/29 13:35:18;;;;;;;13.13;4.47;;;;;;;;;;4940402;29;20074;-85
2022/08/29 13:37:45;;;;;;;9.32;4.10;;;;;;;;;;4952247;29;20089;-86
2022/08/29 13:40:29;;;;;;;9.82;3.78;;;;;;;;;;4950434;29;20047;-85
2022/08/29 13:42:57;;;;;;;9.85;3.67;;;;;;;;;;4948742;28;20078;-86
2022/08/29 13:45:24;;;;;;;10.38;3.80;;;;;;;;;;4952304;28;20456;-86
2022/08/29 13:47:55;;;;;;;11.07;3.75;;;;;;;;;;4951409;29;20057;-85
2022/08/29 13:50:22;;;;;;;10.57;4.10;;;;;;;;;;4950199;29;20031;-86
2022/08/29 13:52:52;;;;;;;13.75;3.72;;;;;;;;;;4953048;28;20058;-85
2022/08/29 13:55:18;;;;;;;11.80;4.10;;;;;;;;;;4950871;29;20536;-86
2022/08/29 13:57:46;;;;;;;7.50;4.05;;;;;;;;;;4947939;29;20047;-86
2022/08/29 14:00:12;;;;;;;10.00;3.90;;;;;;;;;;4951667;28;20122;-86
2022/08/29 14:02:40;;;;;;;14.43;4.07;;;;;;;;;;4942603;28;20063;-86
2022/08/29 14:05:06;;;;;;;9.05;3.92;;;;;;;;;;4931975;29;20126;-86
2022/08/29 14:07:32;;;;;;;7.38;3.65;;;;;;;;;;4933822;29;20095;-86
2022/08/29 14:09:59;;;;;;;10.35;3.75;;;;;;;;;;4941452;29;20058;-86
2022/08/29 14:12:27;;;;;;;7.55;3.58;;;;;;;;;;4945592;28;20055;-86
2022/08/29 14:14:53;;;;;;;11.95;4.15;;;;;;;;;;4932476;29;20059;-86
2022/08/29 14:17:19;;;;;;;7.90;3.67;;;;;;;;;;4933529;29;20494;-86
2022/08/29 14:19:46;;;;;;;7.85;3.40;;;;;;;;;;4954550;29;20130;-86
2022/08/29 14:22:12;;;;;;;7.57;3.22;;;;;;;;;;4954737;29;20051;-86
2022/08/29 14:24:39;;;;;;;9.90;3.35;;;;;;;;;;4955642;28;20047;-85
2022/08/29 14:27:05;;;;;;;7.78;3.33;;;;;;;;;;4954751;28;20047;-85
2022/08/29 14:29:32;;;;;;;8.35;3.30;;;;;;;;;;4956267;29;20051;-86
2022/08/29 14:31:58;;;;;;;7.93;3.40;;;;;;;;;;4953302;28;20043;-86
2022/08/29 14:34:25;;;;;;;6.65;3.30;;;;;;;;;;4955666;29;20065;-86
2022/08/29 14:36:51;;;;;;;7.93;3.22;;;;;;;;;;4956373;29;20094;-86
2022/08/29 14:39:17;;;;;;;7.78;3.20;;;;;;;;;;4948183;29;20047;-85
2022/08/29 14:41:43;;;;;;;7.68;3.28;;;;;;;;;;4944470;29;20148;-86
2022/08/29 14:44:09;;;;;;;9.50;3.42;;;;;;;;;;4951062;29;20048;-85
2022/08/29 14:46:35;;;;;;;8.18;3.05;;;;;;;;;;4951347;29;20047;-86
2022/08/29 14:49:01;;;;;;;7.03;2.95;;;;;;;;;;4952303;28;20179;-86
2022/08/29 14:51:28;;;;;;;9.52;3.10;;;;;;;;;;4954372;28;20055;-86